createdAt,value
2018-03-26T00:00:22.986Z,1008.83
2018-03-26T00:01:22.967Z,1008.81
2018-03-26T00:02:22.939Z,1008.82
2018-03-26T00:03:22.906Z,1008.82
2018-03-26T00:04:22.929Z,1008.85
2018-03-26T00:05:22.896Z,1008.84
2018-03-26T00:06:22.862Z,1008.82
2018-03-26T00:07:22.884Z,1008.83
2018-03-26T00:08:22.827Z,1008.86
2018-03-26T00:09:22.813Z,1008.88
2018-03-26T00:10:22.830Z,1008.88
2018-03-26T00:11:22.805Z,1008.92
2018-03-26T00:12:22.765Z,1008.92
2018-03-26T00:13:22.751Z,1008.93
2018-03-26T00:14:22.729Z,1008.91
2018-03-26T00:15:22.759Z,1008.91
2018-03-26T00:16:22.698Z,1008.95
2018-03-26T00:17:22.680Z,1008.94
2018-03-26T00:18:22.671Z,1008.96
2018-03-26T00:19:22.642Z,1008.99
2018-03-26T00:20:22.639Z,1008.98
2018-03-26T00:21:22.623Z,1008.98
2018-03-26T00:22:22.604Z,1009.01
2018-03-26T00:23:22.620Z,1008.98
2018-03-26T00:24:22.577Z,1009.00
2018-03-26T00:25:22.549Z,1008.99
2018-03-26T00:26:22.548Z,1009.00
2018-03-26T00:27:22.518Z,1008.97
2018-03-26T00:28:22.498Z,1008.97
2018-03-26T00:29:22.491Z,1009.01
2018-03-26T00:30:22.463Z,1008.97
2018-03-26T00:31:22.463Z,1008.95
2018-03-26T00:32:22.434Z,1008.97
2018-03-26T00:33:22.420Z,1008.95
2018-03-26T00:34:22.439Z,1008.96
2018-03-26T00:35:22.405Z,1008.95
2018-03-26T00:36:22.383Z,1008.94
2018-03-26T00:37:22.348Z,1008.93
2018-03-26T00:38:22.329Z,1008.96
2018-03-26T00:39:22.332Z,1008.95
2018-03-26T00:40:22.319Z,1008.95
2018-03-26T00:41:22.278Z,1008.95
2018-03-26T00:42:22.279Z,1008.97
2018-03-26T00:43:22.276Z,1008.97
2018-03-26T00:44:22.232Z,1008.97
2018-03-26T00:45:22.217Z,1008.95
2018-03-26T00:46:22.199Z,1008.93
2018-03-26T00:47:22.197Z,1008.93
2018-03-26T00:48:22.173Z,1008.97
2018-03-26T00:49:22.143Z,1008.95
2018-03-26T00:50:22.131Z,1008.98
2018-03-26T00:51:22.133Z,1008.99
2018-03-26T00:52:22.128Z,1009.00
2018-03-26T00:53:22.082Z,1008.99
2018-03-26T00:54:22.061Z,1008.96
2018-03-26T00:55:22.047Z,1008.97
2018-03-26T00:56:22.030Z,1008.96
2018-03-26T00:57:22.030Z,1008.99
2018-03-26T00:58:22.004Z,1009.03
2018-03-26T00:59:21.977Z,1009.00
2018-03-26T01:00:21.965Z,1009.01
2018-03-26T01:01:21.989Z,1009.05
2018-03-26T01:02:21.928Z,1009.08
2018-03-26T01:03:21.923Z,1009.03
2018-03-26T01:04:21.895Z,1009.06
2018-03-26T01:05:21.880Z,1009.01
2018-03-26T01:06:21.864Z,1009.08
2018-03-26T01:07:42.851Z,1009.04
2018-03-26T01:08:21.839Z,1009.03
2018-03-26T01:09:21.819Z,1009.07
2018-03-26T01:10:21.797Z,1009.05
2018-03-26T01:11:21.775Z,1009.07
2018-03-26T01:12:21.756Z,1009.07
2018-03-26T01:13:21.757Z,1009.07
2018-03-26T01:14:21.722Z,1009.11
2018-03-26T01:15:21.719Z,1009.15
2018-03-26T01:16:21.686Z,1009.17
2018-03-26T01:17:21.689Z,1009.18
2018-03-26T01:18:21.676Z,1009.20
2018-03-26T01:19:21.658Z,1009.23
2018-03-26T01:20:22.227Z,1009.24
2018-03-26T01:21:21.608Z,1009.24
2018-03-26T01:22:21.591Z,1009.30
2018-03-26T01:23:21.590Z,1009.28
2018-03-26T01:24:21.549Z,1009.33
2018-03-26T01:25:21.533Z,1009.32
2018-03-26T01:26:21.520Z,1009.37
2018-03-26T01:27:21.506Z,1009.38
2018-03-26T01:28:21.491Z,1009.39
2018-03-26T01:29:21.487Z,1009.38
2018-03-26T01:30:21.464Z,1009.41
2018-03-26T01:31:21.440Z,1009.41
2018-03-26T01:32:21.421Z,1009.42
2018-03-26T01:33:21.409Z,1009.46
2018-03-26T01:34:21.375Z,1009.45
2018-03-26T01:35:21.380Z,1009.50
2018-03-26T01:36:21.345Z,1009.49
2018-03-26T01:37:21.336Z,1009.51
2018-03-26T01:38:21.316Z,1009.47
2018-03-26T01:39:21.295Z,1009.49
2018-03-26T01:40:21.300Z,1009.50
2018-03-26T01:41:21.263Z,1009.53
2018-03-26T01:42:21.240Z,1009.54
2018-03-26T01:43:21.236Z,1009.60
2018-03-26T01:44:21.230Z,1009.60
2018-03-26T01:45:21.191Z,1009.61
2018-03-26T01:46:21.180Z,1009.64
2018-03-26T01:47:21.161Z,1009.63
2018-03-26T01:48:21.157Z,1009.65
2018-03-26T01:49:21.122Z,1009.67
2018-03-26T01:50:21.130Z,1009.64
2018-03-26T01:51:21.093Z,1009.66
2018-03-26T01:52:21.068Z,1009.71
2018-03-26T01:53:21.052Z,1009.68
2018-03-26T01:54:21.055Z,1009.71
2018-03-26T01:55:21.033Z,1009.72
2018-03-26T01:56:20.997Z,1009.72
2018-03-26T01:57:20.984Z,1009.72
2018-03-26T01:58:20.963Z,1009.68
2018-03-26T01:59:20.944Z,1009.69
2018-03-26T02:00:20.949Z,1009.71
2018-03-26T02:01:20.923Z,1009.68
2018-03-26T02:02:20.896Z,1009.69
2018-03-26T02:03:20.910Z,1009.70
2018-03-26T02:04:20.878Z,1009.72
2018-03-26T02:05:20.843Z,1009.74
2018-03-26T02:06:20.837Z,1009.74
2018-03-26T02:07:20.818Z,1009.78
2018-03-26T02:08:20.792Z,1009.77
2018-03-26T02:09:20.798Z,1009.78
2018-03-26T02:10:20.813Z,1009.75
2018-03-26T02:11:20.738Z,1009.79
2018-03-26T02:12:20.714Z,1009.77
2018-03-26T02:13:20.700Z,1009.77
2018-03-26T02:14:20.699Z,1009.78
2018-03-26T02:15:20.692Z,1009.80
2018-03-26T02:16:20.643Z,1009.79
2018-03-26T02:17:20.635Z,1009.80
2018-03-26T02:18:20.621Z,1009.77
2018-03-26T02:19:20.601Z,1009.83
2018-03-26T02:20:20.592Z,1009.80
2018-03-26T02:21:20.564Z,1009.90
2018-03-26T02:22:20.544Z,1009.87
2018-03-26T02:23:20.541Z,1009.92
2018-03-26T02:24:20.512Z,1009.94
2018-03-26T02:25:20.504Z,1009.94
2018-03-26T02:26:20.472Z,1009.90
2018-03-26T02:27:20.475Z,1009.90
2018-03-26T02:28:20.435Z,1009.93
2018-03-26T02:29:20.419Z,1009.89
2018-03-26T02:30:41.419Z,1009.91
2018-03-26T02:31:20.386Z,1009.90
2018-03-26T02:32:20.374Z,1009.89
2018-03-26T02:33:20.353Z,1009.90
2018-03-26T02:34:20.359Z,1009.89
2018-03-26T02:35:20.344Z,1009.88
2018-03-26T02:36:20.319Z,1009.87
2018-03-26T02:37:20.297Z,1009.90
2018-03-26T02:38:20.304Z,1009.87
2018-03-26T02:39:20.257Z,1009.91
2018-03-26T02:40:20.238Z,1009.92
2018-03-26T02:41:20.218Z,1009.90
2018-03-26T02:42:20.199Z,1009.96
2018-03-26T02:43:20.183Z,1009.98
2018-03-26T02:44:20.178Z,1009.99
2018-03-26T02:45:20.145Z,1009.98
2018-03-26T02:46:20.125Z,1009.99
2018-03-26T02:47:20.105Z,1009.98
2018-03-26T02:48:20.101Z,1010.04
2018-03-26T02:49:20.086Z,1010.05
2018-03-26T02:50:20.054Z,1010.03
2018-03-26T02:51:20.044Z,1010.01
2018-03-26T02:52:20.028Z,1010.05
2018-03-26T02:53:20.006Z,1010.04
2018-03-26T02:54:20.011Z,1010.03
2018-03-26T02:55:20.004Z,1010.04
2018-03-26T02:56:19.979Z,1010.07
2018-03-26T02:57:19.943Z,1010.05
2018-03-26T02:58:19.921Z,1010.08
2018-03-26T02:59:19.899Z,1010.08
2018-03-26T03:00:19.903Z,1010.06
2018-03-26T03:01:19.867Z,1010.11
2018-03-26T03:02:19.864Z,1010.07
2018-03-26T03:03:19.829Z,1010.08
2018-03-26T03:04:19.821Z,1010.12
2018-03-26T03:05:19.799Z,1010.10
2018-03-26T03:06:19.777Z,1010.09
2018-03-26T03:07:19.764Z,1010.09
2018-03-26T03:08:19.757Z,1010.09
2018-03-26T03:09:19.727Z,1010.10
2018-03-26T03:10:19.713Z,1010.15
2018-03-26T03:11:19.695Z,1010.14
2018-03-26T03:12:19.673Z,1010.13
2018-03-26T03:13:19.674Z,1010.13
2018-03-26T03:14:19.641Z,1010.11
2018-03-26T03:15:19.619Z,1010.15
2018-03-26T03:16:19.601Z,1010.15
2018-03-26T03:17:19.590Z,1010.16
2018-03-26T03:18:19.570Z,1010.18
2018-03-26T03:19:19.579Z,1010.18
2018-03-26T03:20:19.539Z,1010.22
2018-03-26T03:21:19.519Z,1010.20
2018-03-26T03:22:19.502Z,1010.23
2018-03-26T03:23:19.486Z,1010.26
2018-03-26T03:24:19.474Z,1010.25
2018-03-26T03:25:19.446Z,1010.28
2018-03-26T03:26:19.431Z,1010.27
2018-03-26T03:27:19.404Z,1010.30
2018-03-26T03:28:40.406Z,1010.29
2018-03-26T03:29:19.374Z,1010.28
2018-03-26T03:30:19.373Z,1010.28
2018-03-26T03:31:19.342Z,1010.32
2018-03-26T03:32:19.315Z,1010.30
2018-03-26T03:33:19.304Z,1010.29
2018-03-26T03:34:19.286Z,1010.28
2018-03-26T03:35:19.279Z,1010.31
2018-03-26T03:36:19.257Z,1010.31
2018-03-26T03:37:19.230Z,1010.31
2018-03-26T03:38:19.221Z,1010.34
2018-03-26T03:39:19.199Z,1010.30
2018-03-26T03:40:19.174Z,1010.31
2018-03-26T03:41:19.171Z,1010.26
2018-03-26T03:42:19.145Z,1010.28
2018-03-26T03:43:19.129Z,1010.30
2018-03-26T03:44:19.104Z,1010.31
2018-03-26T03:45:19.089Z,1010.29
2018-03-26T03:46:19.092Z,1010.34
2018-03-26T03:47:19.064Z,1010.33
2018-03-26T03:48:19.040Z,1010.34
2018-03-26T03:49:19.021Z,1010.33
2018-03-26T03:50:19.002Z,1010.38
2018-03-26T03:51:18.988Z,1010.36
2018-03-26T03:52:18.988Z,1010.33
2018-03-26T03:53:18.944Z,1010.32
2018-03-26T03:54:18.930Z,1010.34
2018-03-26T03:55:18.914Z,1010.35
2018-03-26T03:56:18.900Z,1010.32
2018-03-26T03:57:18.895Z,1010.36
2018-03-26T03:58:18.854Z,1010.38
2018-03-26T03:59:18.847Z,1010.39
2018-03-26T04:00:18.826Z,1010.41
2018-03-26T04:01:18.813Z,1010.43
2018-03-26T04:02:18.795Z,1010.44
2018-03-26T04:03:18.785Z,1010.47
2018-03-26T04:04:18.750Z,1010.45
2018-03-26T04:05:18.729Z,1010.43
2018-03-26T04:06:18.718Z,1010.44
2018-03-26T04:07:18.699Z,1010.49
2018-03-26T04:08:18.692Z,1010.49
2018-03-26T04:09:18.680Z,1010.46
2018-03-26T04:10:18.644Z,1010.44
2018-03-26T04:11:18.623Z,1010.46
2018-03-26T04:12:18.636Z,1010.48
2018-03-26T04:13:18.603Z,1010.48
2018-03-26T04:14:18.573Z,1010.53
2018-03-26T04:15:18.552Z,1010.53
2018-03-26T04:16:18.535Z,1010.50
2018-03-26T04:17:18.531Z,1010.50
2018-03-26T04:18:18.495Z,1010.52
2018-03-26T04:19:18.495Z,1010.54
2018-03-26T04:20:18.457Z,1010.54
2018-03-26T04:21:18.444Z,1010.51
2018-03-26T04:22:18.432Z,1010.54
2018-03-26T04:23:18.410Z,1010.58
2018-03-26T04:24:18.406Z,1010.58
2018-03-26T04:25:18.372Z,1010.57
2018-03-26T04:26:18.353Z,1010.63
2018-03-26T04:27:18.344Z,1010.60
2018-03-26T04:28:18.334Z,1010.62
2018-03-26T04:29:18.313Z,1010.62
2018-03-26T04:30:18.288Z,1010.61
2018-03-26T04:31:18.275Z,1010.64
2018-03-26T04:32:18.256Z,1010.64
2018-03-26T04:33:18.251Z,1010.63
2018-03-26T04:34:18.205Z,1010.64
2018-03-26T04:35:18.208Z,1010.64
2018-03-26T04:36:18.195Z,1010.60
2018-03-26T04:37:18.162Z,1010.60
2018-03-26T04:38:18.137Z,1010.60
2018-03-26T04:39:18.121Z,1010.60
2018-03-26T04:40:18.096Z,1010.61
2018-03-26T04:41:18.098Z,1010.57
2018-03-26T04:42:18.066Z,1010.61
2018-03-26T04:43:18.041Z,1010.59
2018-03-26T04:44:18.028Z,1010.61
2018-03-26T04:45:18.003Z,1010.59
2018-03-26T04:46:18.001Z,1010.61
2018-03-26T04:47:17.986Z,1010.55
2018-03-26T04:48:17.964Z,1010.57
2018-03-26T04:49:17.936Z,1010.58
2018-03-26T04:50:17.921Z,1010.58
2018-03-26T04:51:17.904Z,1010.59
2018-03-26T04:52:17.901Z,1010.58
2018-03-26T04:53:17.894Z,1010.62
2018-03-26T04:54:17.839Z,1010.64
2018-03-26T04:55:17.827Z,1010.65
2018-03-26T04:56:38.830Z,1010.64
2018-03-26T04:57:17.792Z,1010.67
2018-03-26T04:58:17.767Z,1010.67
2018-03-26T04:59:17.748Z,1010.68
2018-03-26T05:00:17.749Z,1010.65
2018-03-26T05:01:17.716Z,1010.69
2018-03-26T05:02:17.710Z,1010.70
2018-03-26T05:03:17.680Z,1010.68
2018-03-26T05:04:17.660Z,1010.68
2018-03-26T05:05:17.642Z,1010.68
2018-03-26T05:06:17.620Z,1010.70
2018-03-26T05:07:17.601Z,1010.70
2018-03-26T05:08:17.597Z,1010.73
2018-03-26T05:09:17.571Z,1010.69
2018-03-26T05:10:17.563Z,1010.69
2018-03-26T05:11:17.524Z,1010.73
2018-03-26T05:12:17.524Z,1010.76
2018-03-26T05:13:17.492Z,1010.79
2018-03-26T05:14:17.470Z,1010.82
2018-03-26T05:15:17.455Z,1010.88
2018-03-26T05:16:17.440Z,1010.88
2018-03-26T05:17:17.431Z,1010.89
2018-03-26T05:18:17.418Z,1010.87
2018-03-26T05:19:17.397Z,1010.93
2018-03-26T05:20:17.367Z,1010.92
2018-03-26T05:21:17.359Z,1010.91
2018-03-26T05:22:17.318Z,1010.94
2018-03-26T05:23:17.309Z,1010.97
2018-03-26T05:24:17.318Z,1010.99
2018-03-26T05:25:17.288Z,1011.04
2018-03-26T05:26:17.244Z,1011.00
2018-03-26T05:27:17.229Z,1011.00
2018-03-26T05:28:17.211Z,1011.05
2018-03-26T05:29:17.206Z,1011.08
2018-03-26T05:30:17.185Z,1011.05
2018-03-26T05:31:17.152Z,1011.09
2018-03-26T05:32:17.156Z,1011.10
2018-03-26T05:33:17.124Z,1011.07
2018-03-26T05:34:17.098Z,1011.14
2018-03-26T05:35:17.087Z,1011.12
2018-03-26T05:36:17.062Z,1011.12
2018-03-26T05:37:17.045Z,1011.15
2018-03-26T05:38:17.059Z,1011.18
2018-03-26T05:39:17.002Z,1011.23
2018-03-26T05:40:16.987Z,1011.21
2018-03-26T05:41:16.976Z,1011.22
2018-03-26T05:42:16.970Z,1011.24
2018-03-26T05:43:16.954Z,1011.24
2018-03-26T05:44:16.932Z,1011.25
2018-03-26T05:45:16.891Z,1011.25
2018-03-26T05:46:16.868Z,1011.23
2018-03-26T05:47:16.872Z,1011.25
2018-03-26T05:48:16.838Z,1011.27
2018-03-26T05:49:16.836Z,1011.30
2018-03-26T05:50:16.796Z,1011.26
2018-03-26T05:51:16.799Z,1011.27
2018-03-26T05:52:16.779Z,1011.28
2018-03-26T05:53:16.768Z,1011.27
2018-03-26T05:54:16.720Z,1011.30
2018-03-26T05:55:16.723Z,1011.30
2018-03-26T05:56:16.690Z,1011.30
2018-03-26T05:57:16.665Z,1011.37
2018-03-26T05:58:16.646Z,1011.38
2018-03-26T05:59:16.650Z,1011.34
2018-03-26T06:00:16.608Z,1011.38
2018-03-26T06:01:16.611Z,1011.42
2018-03-26T06:02:16.575Z,1011.46
2018-03-26T06:03:16.555Z,1011.42
2018-03-26T06:04:16.537Z,1011.45
2018-03-26T06:05:16.519Z,1011.41
2018-03-26T06:06:16.499Z,1011.44
2018-03-26T06:07:16.497Z,1011.47
2018-03-26T06:08:16.460Z,1011.48
2018-03-26T06:09:16.448Z,1011.54
2018-03-26T06:10:16.452Z,1011.52
2018-03-26T06:11:16.403Z,1011.56
2018-03-26T06:12:16.388Z,1011.61
2018-03-26T06:13:16.368Z,1011.67
2018-03-26T06:14:16.365Z,1011.68
2018-03-26T06:15:16.334Z,1011.68
2018-03-26T06:16:16.330Z,1011.71
2018-03-26T06:17:16.302Z,1011.72
2018-03-26T06:18:16.321Z,1011.75
2018-03-26T06:19:16.253Z,1011.75
2018-03-26T06:20:16.238Z,1011.78
2018-03-26T06:21:16.236Z,1011.78
2018-03-26T06:22:16.221Z,1011.81
2018-03-26T06:23:16.185Z,1011.83
2018-03-26T06:24:16.167Z,1011.87
2018-03-26T06:25:16.140Z,1011.87
2018-03-26T06:26:16.138Z,1011.90
2018-03-26T06:27:16.126Z,1011.88
2018-03-26T06:28:16.090Z,1011.85
2018-03-26T06:29:16.083Z,1011.89
2018-03-26T06:30:16.064Z,1011.92
2018-03-26T06:31:16.038Z,1011.90
2018-03-26T06:32:16.013Z,1011.90
2018-03-26T06:33:16.017Z,1011.90
2018-03-26T06:34:15.984Z,1011.92
2018-03-26T06:35:15.963Z,1011.94
2018-03-26T06:36:15.937Z,1012.01
2018-03-26T06:37:15.924Z,1011.98
2018-03-26T06:38:15.937Z,1011.99
2018-03-26T06:39:15.884Z,1012.01
2018-03-26T06:40:15.867Z,1012.02
2018-03-26T06:41:15.851Z,1012.02
2018-03-26T06:42:15.835Z,1012.01
2018-03-26T06:43:15.842Z,1012.01
2018-03-26T06:44:15.840Z,1012.00
2018-03-26T06:45:15.782Z,1012.03
2018-03-26T06:46:15.752Z,1011.99
2018-03-26T06:47:15.734Z,1012.02
2018-03-26T06:48:15.729Z,1012.05
2018-03-26T06:49:15.709Z,1012.06
2018-03-26T06:50:15.672Z,1012.08
2018-03-26T06:51:15.661Z,1012.12
2018-03-26T06:52:15.650Z,1012.12
2018-03-26T06:53:15.628Z,1012.15
2018-03-26T06:54:15.618Z,1012.15
2018-03-26T06:55:15.588Z,1012.16
2018-03-26T06:56:15.572Z,1012.15
2018-03-26T06:57:15.559Z,1012.16
2018-03-26T06:58:15.541Z,1012.14
2018-03-26T06:59:15.530Z,1012.17
2018-03-26T07:00:15.510Z,1012.20
2018-03-26T07:01:15.485Z,1012.20
2018-03-26T07:02:15.467Z,1012.19
2018-03-26T07:03:15.439Z,1012.20
2018-03-26T07:04:15.459Z,1012.22
2018-03-26T07:05:15.434Z,1012.28
2018-03-26T07:06:15.398Z,1012.30
2018-03-26T07:07:15.366Z,1012.28
2018-03-26T07:08:15.346Z,1012.36
2018-03-26T07:09:15.337Z,1012.35
2018-03-26T07:10:15.311Z,1012.33
2018-03-26T07:11:15.316Z,1012.35
2018-03-26T07:12:15.276Z,1012.41
2018-03-26T07:13:15.273Z,1012.39
2018-03-26T07:14:15.238Z,1012.43
2018-03-26T07:15:15.240Z,1012.45
2018-03-26T07:16:15.202Z,1012.42
2018-03-26T07:17:15.187Z,1012.40
2018-03-26T07:18:15.173Z,1012.39
2018-03-26T07:19:15.142Z,1012.43
2018-03-26T07:20:15.129Z,1012.44
2018-03-26T07:21:15.132Z,1012.47
2018-03-26T07:22:15.094Z,1012.54
2018-03-26T07:23:15.080Z,1012.50
2018-03-26T07:24:15.066Z,1012.49
2018-03-26T07:25:15.035Z,1012.52
2018-03-26T07:26:15.053Z,1012.51
2018-03-26T07:27:15.005Z,1012.54
2018-03-26T07:28:14.986Z,1012.51
2018-03-26T07:29:14.971Z,1012.52
2018-03-26T07:30:14.952Z,1012.49
2018-03-26T07:31:14.948Z,1012.57
2018-03-26T07:32:14.949Z,1012.57
2018-03-26T07:33:14.893Z,1012.54
2018-03-26T07:34:14.895Z,1012.55
2018-03-26T07:35:14.866Z,1012.56
2018-03-26T07:36:14.853Z,1012.63
2018-03-26T07:37:14.855Z,1012.62
2018-03-26T07:38:14.812Z,1012.61
2018-03-26T07:39:14.784Z,1012.58
2018-03-26T07:40:14.774Z,1012.58
2018-03-26T07:41:14.799Z,1012.59
2018-03-26T07:42:14.766Z,1012.58
2018-03-26T07:43:14.717Z,1012.62
2018-03-26T07:44:14.740Z,1012.54
2018-03-26T07:45:14.716Z,1012.62
2018-03-26T07:46:14.697Z,1012.63
2018-03-26T07:47:14.668Z,1012.65
2018-03-26T07:48:14.663Z,1012.65
2018-03-26T07:49:14.654Z,1012.70
2018-03-26T07:50:14.590Z,1012.64
2018-03-26T07:51:14.614Z,1012.62
2018-03-26T07:52:14.610Z,1012.63
2018-03-26T07:53:14.532Z,1012.65
2018-03-26T07:54:14.548Z,1012.66
2018-03-26T07:55:14.538Z,1012.65
2018-03-26T07:56:14.495Z,1012.68
2018-03-26T07:57:14.497Z,1012.66
2018-03-26T07:58:14.459Z,1012.68
2018-03-26T07:59:14.442Z,1012.68
2018-03-26T08:00:14.412Z,1012.69
2018-03-26T08:01:14.419Z,1012.66
2018-03-26T08:02:14.391Z,1012.72
2018-03-26T08:03:14.360Z,1012.74
2018-03-26T08:04:14.373Z,1012.80
2018-03-26T08:05:14.340Z,1012.78
2018-03-26T08:06:14.315Z,1012.84
2018-03-26T08:07:14.290Z,1012.82
2018-03-26T08:08:14.296Z,1012.81
2018-03-26T08:09:14.248Z,1012.81
2018-03-26T08:10:14.264Z,1012.80
2018-03-26T08:11:14.260Z,1012.86
2018-03-26T08:12:14.223Z,1012.87
2018-03-26T08:13:14.183Z,1012.93
2018-03-26T08:14:14.168Z,1012.92
2018-03-26T08:15:14.149Z,1012.92
2018-03-26T08:16:14.157Z,1012.92
2018-03-26T08:17:14.191Z,1012.95
2018-03-26T08:18:14.112Z,1012.92
2018-03-26T08:19:14.093Z,1012.91
2018-03-26T08:20:14.061Z,1012.90
2018-03-26T08:21:14.034Z,1012.87
2018-03-26T08:22:14.036Z,1012.87
2018-03-26T08:23:14.039Z,1012.90
2018-03-26T08:24:13.986Z,1012.92
2018-03-26T08:25:13.967Z,1012.94
2018-03-26T08:26:13.982Z,1012.97
2018-03-26T08:27:13.926Z,1012.98
2018-03-26T08:28:13.916Z,1012.97
2018-03-26T08:29:13.901Z,1012.97
2018-03-26T08:30:13.879Z,1012.94
2018-03-26T08:31:13.888Z,1012.92
2018-03-26T08:32:13.831Z,1012.95
2018-03-26T08:33:13.846Z,1012.99
2018-03-26T08:34:13.814Z,1012.97
2018-03-26T08:35:13.786Z,1012.98
2018-03-26T08:36:13.794Z,1012.99
2018-03-26T08:37:13.765Z,1013.01
2018-03-26T08:38:13.750Z,1013.03
2018-03-26T08:39:13.739Z,1012.99
2018-03-26T08:40:13.701Z,1013.01
2018-03-26T08:41:13.681Z,1013.02
2018-03-26T08:42:13.700Z,1013.06
2018-03-26T08:43:13.665Z,1013.04
2018-03-26T08:44:13.668Z,1013.05
2018-03-26T08:45:13.627Z,1013.08
2018-03-26T08:46:13.600Z,1013.07
2018-03-26T08:47:13.593Z,1013.06
2018-03-26T08:48:21.842Z,1013.10
2018-03-26T08:49:13.539Z,1013.08
2018-03-26T08:50:13.646Z,1013.08
2018-03-26T08:51:13.508Z,1013.08
2018-03-26T08:52:13.477Z,1013.06
2018-03-26T08:53:13.459Z,1013.06
2018-03-26T08:54:13.463Z,1013.08
2018-03-26T08:55:13.427Z,1013.09
2018-03-26T08:56:13.410Z,1013.10
2018-03-26T08:57:13.393Z,1013.10
2018-03-26T08:58:13.374Z,1013.13
2018-03-26T08:59:13.386Z,1013.16
2018-03-26T09:00:13.337Z,1013.11
2018-03-26T09:01:13.322Z,1013.10
2018-03-26T09:02:13.310Z,1013.12
2018-03-26T09:03:13.288Z,1013.14
2018-03-26T09:04:13.291Z,1013.12
2018-03-26T09:05:13.287Z,1013.11
2018-03-26T09:06:13.239Z,1013.08
2018-03-26T09:07:13.239Z,1013.12
2018-03-26T09:08:13.207Z,1013.09
2018-03-26T09:09:13.208Z,1013.07
2018-03-26T09:10:13.171Z,1013.06
2018-03-26T09:11:13.170Z,1013.10
2018-03-26T09:12:13.140Z,1013.09
2018-03-26T09:13:13.117Z,1013.06
2018-03-26T09:14:13.101Z,1013.07
2018-03-26T09:15:13.114Z,1013.10
2018-03-26T09:16:13.073Z,1013.09
2018-03-26T09:17:13.080Z,1013.13
2018-03-26T09:18:13.051Z,1013.19
2018-03-26T09:19:13.024Z,1013.18
2018-03-26T09:20:13.017Z,1013.21
2018-03-26T09:21:12.998Z,1013.23
2018-03-26T09:22:13.021Z,1013.18
2018-03-26T09:23:12.966Z,1013.23
2018-03-26T09:24:12.987Z,1013.27
2018-03-26T09:25:12.933Z,1013.30
2018-03-26T09:26:12.931Z,1013.34
2018-03-26T09:27:12.907Z,1013.35
2018-03-26T09:28:12.898Z,1013.26
2018-03-26T09:29:12.915Z,1013.29
2018-03-26T09:30:12.866Z,1013.31
2018-03-26T09:31:12.862Z,1013.33
2018-03-26T09:32:12.838Z,1013.38
2018-03-26T09:33:12.876Z,1013.37
2018-03-26T09:34:12.825Z,1013.36
2018-03-26T09:35:12.809Z,1013.38
2018-03-26T09:36:12.802Z,1013.39
2018-03-26T09:37:12.793Z,1013.42
2018-03-26T09:38:12.796Z,1013.40
2018-03-26T09:39:12.772Z,1013.35
2018-03-26T09:40:12.819Z,1013.34
2018-03-26T09:41:12.762Z,1013.37
2018-03-26T09:42:12.728Z,1013.36
2018-03-26T09:43:12.722Z,1013.34
2018-03-26T09:44:12.725Z,1013.42
2018-03-26T09:45:12.712Z,1013.36
2018-03-26T09:46:12.697Z,1013.32
2018-03-26T09:47:12.693Z,1013.36
2018-03-26T09:48:12.658Z,1013.32
2018-03-26T09:49:12.655Z,1013.32
2018-03-26T09:50:12.639Z,1013.35
2018-03-26T09:51:12.641Z,1013.34
2018-03-26T09:52:12.609Z,1013.35
2018-03-26T09:53:12.625Z,1013.41
2018-03-26T09:54:12.599Z,1013.41
2018-03-26T09:55:12.582Z,1013.40
2018-03-26T09:56:12.575Z,1013.50
2018-03-26T09:57:12.586Z,1013.46
2018-03-26T09:58:12.576Z,1013.43
2018-03-26T09:59:12.560Z,1013.32
2018-03-26T10:00:12.560Z,1013.44
2018-03-26T10:01:12.584Z,1013.48
2018-03-26T10:02:12.541Z,1013.48
2018-03-26T10:03:12.515Z,1013.44
2018-03-26T10:04:12.579Z,1013.39
2018-03-26T10:05:12.506Z,1013.40
2018-03-26T10:06:12.497Z,1013.42
2018-03-26T10:07:12.482Z,1013.42
2018-03-26T10:08:12.489Z,1013.51
2018-03-26T10:09:12.483Z,1013.47
2018-03-26T10:10:12.487Z,1013.50
2018-03-26T10:11:12.454Z,1013.49
2018-03-26T10:12:12.457Z,1013.53
2018-03-26T10:13:12.447Z,1013.49
2018-03-26T10:14:12.508Z,1013.47
2018-03-26T10:15:12.442Z,1013.52
2018-03-26T10:16:12.424Z,1013.53
2018-03-26T10:17:12.415Z,1013.49
2018-03-26T10:18:12.428Z,1013.51
2018-03-26T10:19:12.403Z,1013.50
2018-03-26T10:20:12.392Z,1013.53
2018-03-26T10:21:12.399Z,1013.52
2018-03-26T10:22:12.373Z,1013.49
2018-03-26T10:23:12.373Z,1013.49
2018-03-26T10:24:12.387Z,1013.51
2018-03-26T10:25:12.406Z,1013.47
2018-03-26T10:26:12.350Z,1013.38
2018-03-26T10:27:12.354Z,1013.41
2018-03-26T10:28:12.331Z,1013.44
2018-03-26T10:29:12.324Z,1013.41
2018-03-26T10:30:12.324Z,1013.42
2018-03-26T10:31:12.395Z,1013.42
2018-03-26T10:32:12.311Z,1013.46
2018-03-26T10:33:12.330Z,1013.46
2018-03-26T10:34:12.291Z,1013.43
2018-03-26T10:35:12.279Z,1013.48
2018-03-26T10:36:12.266Z,1013.51
2018-03-26T10:37:12.261Z,1013.52
2018-03-26T10:38:12.274Z,1013.55
2018-03-26T10:39:12.265Z,1013.53
2018-03-26T10:40:12.243Z,1013.49
2018-03-26T10:41:12.229Z,1013.52
2018-03-26T10:42:12.230Z,1013.52
2018-03-26T10:43:12.217Z,1013.46
2018-03-26T10:44:12.245Z,1013.45
2018-03-26T10:45:12.209Z,1013.47
2018-03-26T10:46:12.222Z,1013.46
2018-03-26T10:47:12.189Z,1013.46
2018-03-26T10:48:12.179Z,1013.42
2018-03-26T10:49:12.207Z,1013.39
2018-03-26T10:50:12.161Z,1013.45
2018-03-26T10:51:12.173Z,1013.36
2018-03-26T10:52:12.164Z,1013.39
2018-03-26T10:53:12.141Z,1013.40
2018-03-26T10:54:12.135Z,1013.36
2018-03-26T10:55:12.125Z,1013.44
2018-03-26T10:56:12.118Z,1013.41
2018-03-26T10:57:12.112Z,1013.42
2018-03-26T10:58:12.129Z,1013.43
2018-03-26T10:59:12.091Z,1013.39
2018-03-26T11:00:12.084Z,1013.42
2018-03-26T11:01:12.078Z,1013.41
2018-03-26T11:02:12.062Z,1013.34
2018-03-26T11:03:12.078Z,1013.43
2018-03-26T11:04:12.045Z,1013.43
2018-03-26T11:05:12.033Z,1013.34
2018-03-26T11:06:12.042Z,1013.36
2018-03-26T11:07:12.020Z,1013.37
2018-03-26T11:08:12.023Z,1013.39
2018-03-26T11:09:12.006Z,1013.41
2018-03-26T11:10:11.994Z,1013.40
2018-03-26T11:11:11.982Z,1013.39
2018-03-26T11:12:11.976Z,1013.43
2018-03-26T11:13:11.985Z,1013.45
2018-03-26T11:14:11.953Z,1013.44
2018-03-26T11:15:11.954Z,1013.44
2018-03-26T11:16:11.937Z,1013.45
2018-03-26T11:17:11.933Z,1013.45
2018-03-26T11:18:11.912Z,1013.46
2018-03-26T11:19:11.906Z,1013.47
2018-03-26T11:20:11.925Z,1013.48
2018-03-26T11:21:11.892Z,1013.41
2018-03-26T11:22:11.879Z,1013.42
2018-03-26T11:23:11.894Z,1013.47
2018-03-26T11:24:11.861Z,1013.48
2018-03-26T11:25:11.860Z,1013.47
2018-03-26T11:26:11.849Z,1013.47
2018-03-26T11:27:11.857Z,1013.42
2018-03-26T11:28:11.827Z,1013.46
2018-03-26T11:29:11.816Z,1013.46
2018-03-26T11:30:11.803Z,1013.45
2018-03-26T11:31:11.800Z,1013.49
2018-03-26T11:32:11.788Z,1013.47
2018-03-26T11:33:11.798Z,1013.48
2018-03-26T11:34:11.766Z,1013.55
2018-03-26T11:35:11.786Z,1013.48
2018-03-26T11:36:11.767Z,1013.45
2018-03-26T11:37:11.743Z,1013.44
2018-03-26T11:38:11.727Z,1013.41
2018-03-26T11:39:11.722Z,1013.42
2018-03-26T11:40:11.732Z,1013.44
2018-03-26T11:41:11.698Z,1013.42
2018-03-26T11:42:11.691Z,1013.40
2018-03-26T11:43:11.674Z,1013.43
2018-03-26T11:44:11.682Z,1013.46
2018-03-26T11:45:11.658Z,1013.46
2018-03-26T11:46:11.676Z,1013.49
2018-03-26T11:47:11.642Z,1013.48
2018-03-26T11:48:11.631Z,1013.51
2018-03-26T11:49:11.621Z,1013.55
2018-03-26T11:50:11.616Z,1013.53
2018-03-26T11:51:11.608Z,1013.50
2018-03-26T11:52:11.606Z,1013.52
2018-03-26T11:53:11.580Z,1013.50
2018-03-26T11:54:11.570Z,1013.54
2018-03-26T11:55:11.611Z,1013.55
2018-03-26T11:56:11.562Z,1013.52
2018-03-26T11:57:11.545Z,1013.55
2018-03-26T11:58:11.548Z,1013.54
2018-03-26T11:59:11.545Z,1013.56
2018-03-26T12:00:11.530Z,1013.53
2018-03-26T12:01:11.538Z,1013.53
2018-03-26T12:02:11.520Z,1013.52
2018-03-26T12:03:11.484Z,1013.51
2018-03-26T12:04:11.481Z,1013.58
2018-03-26T12:05:11.474Z,1013.52